Time;durP1;ratioP1;P1;durP2;ratioP2;P2;SDS_P1;SDS_P2;PMS_P1;PMS_P2;Temp;Humidity;BMP_temperature;BMP_pressure;BME280_temperature;BME280_humidity;BME280_pressure;Samples;Min_cycle;Max_cycle;Signal;HPM_P1;HPM_P2
2023/08/19 00:00:21;;;;;;;10.53;6.43;;;18.00;38.40;;;;;;5060425;28;46463;-72
2023/08/19 00:02:46;;;;;;;15.00;5.90;;;18.00;38.70;;;;;;5056802;28;46340;-72
2023/08/19 00:05:12;;;;;;;9.27;5.90;;;15.30;36.00;;;;;;5056702;28;46376;-72
2023/08/19 00:07:38;;;;;;;9.20;6.40;;;;;;;;;;5056255;28;46355;-72
2023/08/19 00:10:05;;;;;;;10.97;6.80;;;17.90;38.40;;;;;;5057856;28;46750;-71
2023/08/19 00:12:31;;;;;;;14.13;6.73;;;17.90;38.50;;;;;;5054383;28;46544;-72
2023/08/19 00:14:57;;;;;;;10.57;6.30;;;17.90;38.50;;;;;;5054061;28;46478;-71
2023/08/19 00:17:23;;;;;;;14.10;7.70;;;17.90;38.80;;;;;;5054681;28;47673;-72
2023/08/19 00:19:49;;;;;;;12.33;7.37;;;;;;;;;;5054559;28;46404;-71
2023/08/19 00:22:15;;;;;;;11.43;6.60;;;18.00;38.80;;;;;;5058165;28;46533;-71
2023/08/19 00:24:41;;;;;;;12.20;6.60;;;18.00;39.00;;;;;;5057896;28;46438;-71
2023/08/19 00:27:06;;;;;;;15.80;7.93;;;18.00;38.90;;;;;;5047570;28;46683;-71
2023/08/19 00:29:32;;;;;;;11.67;7.03;;;18.00;39.90;;;;;;5049409;28;46670;-72
2023/08/19 00:31:57;;;;;;;15.80;7.17;;;18.00;40.00;;;;;;5050601;28;46576;-72
2023/08/19 00:34:23;;;;;;;12.90;7.33;;;18.00;40.10;;;;;;5050364;28;46383;-71
2023/08/19 00:36:49;;;;;;;13.27;6.80;;;18.00;39.40;;;;;;5047964;28;46880;-71
2023/08/19 00:39:15;;;;;;;9.83;6.50;;;18.00;40.30;;;;;;5047356;28;46433;-72
2023/08/19 00:41:40;;;;;;;12.00;7.07;;;18.00;40.40;;;;;;5049048;28;46334;-72
2023/08/19 00:44:07;;;;;;;12.07;6.30;;;18.00;40.50;;;;;;5048083;28;46726;-71
2023/08/19 00:46:33;;;;;;;13.33;7.40;;;17.90;40.10;;;;;;5049036;28;48138;-71
2023/08/19 00:49:00;;;;;;;12.47;6.87;;;17.90;41.00;;;;;;5051888;28;46490;-71
2023/08/19 00:51:26;;;;;;;9.00;7.00;;;17.90;40.90;;;;;;5054196;28;46735;-72
2023/08/19 00:53:53;;;;;;;16.10;8.10;;;17.90;41.20;;;;;;5052578;28;46456;-72
2023/08/19 00:56:19;;;;;;;11.73;7.17;;;17.90;41.00;;;;;;5049424;28;48140;-71
2023/08/19 00:58:45;;;;;;;11.50;7.70;;;;;;;;;;5052554;28;46434;-71
2023/08/19 01:01:11;;;;;;;10.13;7.30;;;;;;;;;;5052140;28;46962;-71
2023/08/19 01:03:37;;;;;;;9.50;7.30;;;17.90;40.70;;;;;;5048140;28;46443;-71
2023/08/19 01:06:21;;;;;;;9.80;6.60;;;17.80;41.20;;;;;;5050164;28;47201;-73
2023/08/19 01:08:55;;;;;;;10.47;6.93;;;17.80;42.70;;;;;;5054205;28;46359;-71
2023/08/19 01:12:01;;;;;;;11.73;6.40;;;17.70;42.50;;;;;;5051239;28;46400;-72
2023/08/19 01:14:53;;;;;;;10.03;6.70;;;17.70;43.00;;;;;;5048140;28;46491;-72
2023/08/19 01:17:23;;;;;;;13.20;7.67;;;17.60;42.00;;;;;;5048087;28;46806;-72
2023/08/19 01:19:50;;;;;;;11.63;7.03;;;17.60;43.00;;;;;;5049019;28;46406;-72
2023/08/19 01:22:27;;;;;;;10.43;6.70;;;17.40;42.70;;;;;;5051119;28;46744;-71
2023/08/19 01:24:53;;;;;;;10.73;6.27;;;;;;;;;;5047770;28;46708;-71
2023/08/19 01:27:25;;;;;;;13.17;6.53;;;17.30;43.80;;;;;;5047217;28;46538;-72
2023/08/19 01:29:52;;;;;;;8.93;6.40;;;17.20;44.10;;;;;;5048601;28;46439;-71
2023/08/19 01:32:18;;;;;;;9.53;6.40;;;17.10;43.90;;;;;;5049869;28;46673;-72
2023/08/19 01:34:46;;;;;;;15.73;6.77;;;17.10;43.90;;;;;;5048775;28;46932;-70
2023/08/19 01:37:28;;;;;;;12.60;6.50;;;17.00;43.90;;;;;;5050005;28;46831;-71
2023/08/19 01:39:55;;;;;;;11.23;7.10;;;17.00;43.80;;;;;;5055474;28;46579;-72
2023/08/19 01:42:21;;;;;;;12.80;7.13;;;17.00;43.80;;;;;;5048159;28;46517;-72
2023/08/19 01:44:47;;;;;;;15.20;7.37;;;;;;;;;;5050739;28;46668;-72
2023/08/19 01:47:16;;;;;;;13.53;8.10;;;17.00;43.80;;;;;;5048234;28;46757;-72
2023/08/19 01:49:43;;;;;;;14.60;7.90;;;17.00;43.80;;;;;;5049338;28;46534;-72
2023/08/19 01:52:09;;;;;;;10.90;7.00;;;17.00;43.80;;;;;;5046452;28;46393;-71
2023/08/19 01:54:35;;;;;;;11.90;8.20;;;17.00;43.80;;;;;;5051858;28;46531;-71
2023/08/19 01:57:01;;;;;;;11.00;7.20;;;;;;;;;;5050110;28;46009;-73
2023/08/19 01:59:27;;;;;;;13.47;7.40;;;;;;;;;;5064402;28;46450;-72
2023/08/19 02:01:53;;;;;;;9.70;6.97;;;;;;;;;;5049140;28;46762;-72
2023/08/19 02:04:18;;;;;;;8.17;5.53;;;16.90;45.40;;;;;;5046630;28;46810;-71
2023/08/19 02:06:44;;;;;;;16.13;7.93;;;;;;;;;;5044141;28;46513;-72
2023/08/19 02:09:10;;;;;;;12.20;8.50;;;17.00;45.10;;;;;;5049297;28;46510;-70
2023/08/19 02:11:36;;;;;;;15.83;7.90;;;;;;;;;;5047419;28;46352;-71
2023/08/19 02:14:01;;;;;;;12.10;7.63;;;17.00;45.40;;;;;;5048208;28;46657;-70
2023/08/19 02:16:27;;;;;;;11.20;7.80;;;17.00;45.50;;;;;;5048677;28;46345;-71
2023/08/19 02:18:53;;;;;;;13.40;8.37;;;;;;;;;;5049744;28;46402;-73
2023/08/19 02:21:19;;;;;;;10.23;7.43;;;;;;;;;;5049185;28;46474;-72
2023/08/19 02:23:45;;;;;;;13.10;7.10;;;;;;;;;;5048723;28;46587;-72
2023/08/19 02:26:11;;;;;;;13.10;6.53;;;16.90;46.40;;;;;;5046257;28;46776;-72
2023/08/19 02:28:36;;;;;;;12.93;6.80;;;16.80;47.00;;;;;;5049702;28;46590;-72
2023/08/19 02:31:03;;;;;;;15.43;6.77;;;16.70;47.30;;;;;;5045649;28;46554;-72
2023/08/19 02:33:29;;;;;;;12.27;6.87;;;16.60;47.70;;;;;;5047145;28;46633;-72
2023/08/19 02:35:55;;;;;;;12.50;6.37;;;16.50;48.40;;;;;;5045360;28;46398;-71
2023/08/19 02:38:21;;;;;;;9.60;7.10;;;;;;;;;;5045647;28;46445;-72
2023/08/19 02:40:50;;;;;;;11.30;7.63;;;16.40;48.70;;;;;;5048399;28;46601;-72
2023/08/19 02:43:17;;;;;;;12.37;7.47;;;16.30;48.70;;;;;;5046226;28;46407;-72
2023/08/19 02:45:43;;;;;;;10.23;6.90;;;16.30;48.70;;;;;;5046325;28;46566;-68
2023/08/19 02:48:09;;;;;;;14.10;7.10;;;;;;;;;;5048677;28;46361;-68
2023/08/19 02:50:35;;;;;;;10.40;7.13;;;16.20;49.00;;;;;;5049423;28;46543;-68
2023/08/19 02:53:01;;;;;;;11.57;7.20;;;;;;;;;;5047233;28;45863;-68
2023/08/19 02:55:27;;;;;;;12.23;6.90;;;;;;;;;;5046422;28;46756;-68
2023/08/19 02:57:52;;;;;;;11.63;7.20;;;16.20;48.90;;;;;;5049585;28;46331;-68
2023/08/19 03:00:18;;;;;;;14.70;7.53;;;16.20;48.80;;;;;;5049075;28;46364;-68
2023/08/19 03:02:47;;;;;;;12.30;7.93;;;16.30;48.80;;;;;;5049093;28;46309;-68
2023/08/19 03:05:13;;;;;;;10.87;7.30;;;16.30;48.60;;;;;;5049804;28;46531;-67
2023/08/19 03:07:39;;;;;;;12.57;7.73;;;;;;;;;;5055110;28;46420;-68
2023/08/19 03:10:06;;;;;;;12.10;8.00;;;16.40;48.50;;;;;;5049553;28;46486;-68
2023/08/19 03:12:32;;;;;;;15.23;7.87;;;16.40;48.50;;;;;;5047188;28;46394;-68
2023/08/19 03:14:58;;;;;;;11.93;8.00;;;16.40;48.50;;;;;;5047785;28;47097;-68
2023/08/19 03:17:23;;;;;;;12.00;8.40;;;16.40;49.40;;;;;;5048050;28;46477;-69
2023/08/19 03:19:49;;;;;;;15.13;7.13;;;16.50;49.60;;;;;;5049837;28;45850;-68
2023/08/19 03:22:15;;;;;;;10.77;6.50;;;16.40;48.90;;;;;;5047864;28;46211;-69
2023/08/19 03:24:40;;;;;;;10.07;5.87;;;16.30;49.30;;;;;;5049605;28;46426;-69
2023/08/19 03:27:06;;;;;;;20.03;6.30;;;;;;;;;;5050655;28;46602;-69
2023/08/19 03:29:32;;;;;;;12.83;6.53;;;16.20;49.20;;;;;;5051248;28;46444;-68
2023/08/19 03:31:58;;;;;;;12.53;7.70;;;16.20;50.70;;;;;;5048036;28;46543;-68
2023/08/19 03:34:24;;;;;;;16.70;6.70;;;16.00;50.30;;;;;;5046487;28;46300;-68
2023/08/19 03:36:50;;;;;;;9.50;6.97;;;16.00;50.60;;;;;;5047826;28;46471;-68
2023/08/19 03:39:15;;;;;;;16.43;8.37;;;15.90;50.60;;;;;;5047167;28;46501;-69
2023/08/19 03:41:41;;;;;;;11.03;6.53;;;;;;;;;;5046947;28;46360;-68
2023/08/19 03:44:07;;;;;;;10.53;6.70;;;;;;;;;;5046672;28;47137;-68
2023/08/19 03:46:33;;;;;;;10.20;6.43;;;;;;;;;;5046263;28;46391;-68
2023/08/19 03:48:59;;;;;;;11.00;6.93;;;;;;;;;;5048146;28;46683;-68
2023/08/19 03:51:26;;;;;;;9.23;6.17;;;15.80;51.10;;;;;;5048767;28;46594;-68
2023/08/19 03:53:51;;;;;;;9.90;6.63;;;;;;;;;;5048014;28;46706;-68
2023/08/19 03:56:17;;;;;;;14.83;7.80;;;;;;;;;;5044243;28;46650;-69
2023/08/19 03:58:46;;;;;;;9.70;6.40;;;15.80;50.60;;;;;;5045303;28;46428;-68
2023/08/19 04:01:11;;;;;;;9.83;6.67;;;15.90;51.80;;;;;;5045685;28;46750;-69
2023/08/19 04:03:37;;;;;;;11.50;6.60;;;16.00;51.00;;;;;;5046537;28;47166;-69
2023/08/19 04:06:03;;;;;;;14.33;7.50;;;15.90;50.60;;;;;;5046786;28;46368;-69
2023/08/19 04:08:29;;;;;;;10.90;6.73;;;15.90;50.80;;;;;;5047444;28;46632;-69
2023/08/19 04:11:02;;;;;;;10.80;7.17;;;15.90;50.60;;;;;;5047737;28;46775;-69
2023/08/19 04:13:28;;;;;;;13.30;7.23;;;;;;;;;;5050182;28;48296;-68
2023/08/19 04:15:54;;;;;;;12.83;7.10;;;;;;;;;;5048690;28;46254;-69
2023/08/19 04:18:19;;;;;;;13.17;6.17;;;16.00;50.80;;;;;;5049588;28;46707;-68
2023/08/19 04:20:45;;;;;;;10.73;5.87;;;16.00;50.80;;;;;;5052172;28;46357;-69
2023/08/19 04:23:12;;;;;;;7.60;5.53;;;16.00;50.80;;;;;;5052051;28;47029;-68
2023/08/19 04:25:38;;;;;;;8.80;5.60;;;15.90;51.00;;;;;;5049991;28;46656;-68
2023/08/19 04:28:06;;;;;;;7.10;5.27;;;;;;;;;;5050547;28;46506;-68
2023/08/19 04:30:32;;;;;;;7.00;5.50;;;15.90;50.80;;;;;;5050571;28;46581;-68
2023/08/19 04:32:58;;;;;;;9.57;5.43;;;15.90;51.70;;;;;;5051677;28;46415;-71
2023/08/19 04:35:27;;;;;;;7.37;4.93;;;16.00;50.70;;;;;;5052624;28;46656;-72
2023/08/19 04:37:53;;;;;;;10.87;4.90;;;16.00;50.60;;;;;;5050172;28;46500;-71
2023/08/19 04:40:19;;;;;;;9.70;6.13;;;16.00;51.30;;;;;;5052854;28;46825;-71
2023/08/19 04:42:45;;;;;;;8.40;5.53;;;;;;;;;;5043110;28;48186;-72
2023/08/19 04:45:11;;;;;;;6.63;4.90;;;16.20;49.80;;;;;;5049309;28;46478;-72
2023/08/19 04:47:37;;;;;;;11.80;4.97;;;16.20;50.70;;;;;;5053218;28;46625;-72
2023/08/19 04:50:07;;;;;;;9.77;5.30;;;16.40;50.50;;;;;;5055111;28;46450;-71
2023/08/19 04:52:34;;;;;;;8.67;5.07;;;16.40;50.10;;;;;;5050902;28;47061;-71
2023/08/19 04:54:59;;;;;;;12.10;4.80;;;16.50;49.00;;;;;;5050928;28;46500;-72
2023/08/19 04:57:25;;;;;;;9.90;5.10;;;16.50;49.90;;;;;;5052089;28;46688;-72
2023/08/19 04:59:51;;;;;;;9.47;5.60;;;16.50;50.00;;;;;;5053335;28;46534;-73
2023/08/19 05:02:16;;;;;;;9.77;5.20;;;16.60;49.80;;;;;;5051859;28;46537;-69
2023/08/19 05:04:42;;;;;;;10.47;5.60;;;16.60;49.60;;;;;;5047744;28;46567;-69
2023/08/19 05:07:07;;;;;;;9.50;5.30;;;16.70;48.20;;;;;;5046761;28;46632;-69
2023/08/19 05:09:33;;;;;;;11.77;6.20;;;16.90;48.60;;;;;;5047166;28;46383;-69
2023/08/19 05:11:58;;;;;;;11.13;5.43;;;17.20;47.40;;;;;;5048796;28;46688;-69
2023/08/19 05:14:25;;;;;;;7.40;4.70;;;17.70;45.50;;;;;;5047517;28;46489;-69
2023/08/19 05:16:51;;;;;;;10.37;5.10;;;18.50;42.10;;;;;;5047152;28;47169;-69
2023/08/19 05:19:20;;;;;;;12.60;4.60;;;19.10;42.20;;;;;;5044284;28;46466;-69
2023/08/19 05:21:48;;;;;;;10.53;4.77;;;20.60;38.00;;;;;;5046892;28;46364;-69
2023/08/19 05:24:14;;;;;;;7.77;4.60;;;20.60;39.10;;;;;;5047423;28;46426;-69
2023/08/19 05:26:41;;;;;;;8.97;4.70;;;21.50;35.10;;;;;;5049134;28;46420;-68
2023/08/19 05:29:07;;;;;;;6.90;4.20;;;22.00;36.00;;;;;;5047762;28;46752;-70
2023/08/19 05:31:33;;;;;;;7.10;4.40;;;22.50;34.50;;;;;;5054432;28;47626;-69
2023/08/19 05:33:59;;;;;;;7.83;4.40;;;23.20;33.20;;;;;;5046792;28;46504;-68
2023/08/19 05:36:24;;;;;;;7.00;4.63;;;24.10;29.80;;;;;;5046953;28;46574;-69
2023/08/19 05:38:50;;;;;;;8.00;3.93;;;24.10;30.00;;;;;;5046407;28;46490;-68
2023/08/19 05:41:16;;;;;;;8.80;4.63;;;24.70;28.30;;;;;;5046090;28;46432;-69
2023/08/19 05:43:41;;;;;;;7.47;4.07;;;25.20;26.80;;;;;;5044677;28;46378;-70
2023/08/19 05:46:07;;;;;;;8.60;3.67;;;26.00;24.20;;;;;;5047574;28;46373;-69
2023/08/19 05:48:33;;;;;;;10.03;4.40;;;26.20;24.40;;;;;;5047094;28;46457;-69
2023/08/19 05:51:00;;;;;;;7.07;3.00;;;26.70;23.80;;;;;;5049407;28;46449;-70
2023/08/19 05:53:26;;;;;;;5.83;3.60;;;;;;;;;;5047908;28;46584;-69
2023/08/19 05:55:52;;;;;;;8.30;3.90;;;27.40;17.60;;;;;;5045232;28;46506;-69
2023/08/19 05:58:18;;;;;;;8.50;3.43;;;27.50;18.90;;;;;;5054679;28;46443;-69
2023/08/19 06:00:43;;;;;;;10.30;3.30;;;27.60;17.00;;;;;;5045084;28;47039;-70
2023/08/19 06:03:09;;;;;;;9.23;3.13;;;28.10;15.70;;;;;;5046436;28;46828;-70
2023/08/19 06:05:35;;;;;;;10.57;3.67;;;28.40;14.70;;;;;;5046897;28;46446;-68
2023/08/19 06:08:02;;;;;;;6.90;3.43;;;28.70;13.00;;;;;;5048156;28;46436;-67
2023/08/19 06:10:27;;;;;;;8.30;3.03;;;28.70;13.60;;;;;;5045899;28;46772;-67
2023/08/19 06:12:53;;;;;;;8.90;3.60;;;29.20;11.00;;;;;;5065792;22;46556;-67
2023/08/19 06:15:18;;;;;;;11.90;3.90;;;29.70;10.30;;;;;;5064402;28;46459;-68
2023/08/19 06:17:44;;;;;;;5.70;3.17;;;29.70;10.40;;;;;;5062526;28;46521;-68
2023/08/19 06:20:10;;;;;;;5.57;3.43;;;30.00;9.70;;;;;;5062315;28;47180;-67
2023/08/19 06:22:36;;;;;;;9.70;4.23;;;30.20;9.00;;;;;;5060838;28;46706;-68
2023/08/19 06:25:02;;;;;;;7.13;3.63;;;30.40;6.70;;;;;;5063103;28;46499;-69
2023/08/19 06:27:28;;;;;;;12.43;4.30;;;30.40;7.40;;;;;;5061947;28;46466;-69
2023/08/19 06:29:53;;;;;;;9.30;4.00;;;30.50;6.40;;;;;;5064317;28;46604;-68
2023/08/19 06:32:19;;;;;;;9.50;3.60;;;30.50;6.40;;;;;;5063141;28;46384;-69
2023/08/19 06:34:45;;;;;;;12.53;4.23;;;30.10;6.20;;;;;;5065945;28;46473;-68
2023/08/19 06:37:15;;;;;;;6.03;3.30;;;28.60;8.40;;;;;;5064802;28;46517;-68
2023/08/19 06:39:43;;;;;;;7.47;4.00;;;27.70;11.30;;;;;;5066829;28;46822;-69
2023/08/19 06:42:11;;;;;;;17.83;3.93;;;27.00;12.90;;;;;;5067186;28;46459;-69
2023/08/19 06:44:38;;;;;;;10.63;3.50;;;27.10;12.00;;;;;;5073717;27;46721;-69
2023/08/19 06:47:07;;;;;;;5.37;3.70;;;28.10;8.30;;;;;;5063486;28;46510;-68
2023/08/19 06:49:34;;;;;;;8.17;3.70;;;28.80;7.80;;;;;;5064167;28;46726;-69
2023/08/19 06:52:00;;;;;;;11.60;4.20;;;29.40;5.80;;;;;;5064096;28;46581;-69
2023/08/19 06:54:26;;;;;;;6.23;3.40;;;29.50;5.90;;;;;;5064730;28;46339;-69
2023/08/19 06:57:00;;;;;;;10.30;3.57;;;28.20;8.30;;;;;;5064196;27;46640;-68
2023/08/19 06:59:34;;;;;;;11.40;4.00;;;27.50;10.90;;;;;;5063641;28;46693;-69
2023/08/19 07:02:02;;;;;;;8.97;4.70;;;26.80;12.70;;;;;;5064304;28;46493;-69
2023/08/19 07:04:29;;;;;;;11.00;3.53;;;26.40;13.90;;;;;;5063985;27;45781;-68
2023/08/19 07:06:57;;;;;;;7.03;3.47;;;26.20;13.80;;;;;;5061612;28;46521;-69
2023/08/19 07:09:23;;;;;;;8.63;3.87;;;26.00;15.10;;;;;;5062577;27;46454;-68
2023/08/19 07:11:58;;;;;;;8.10;3.80;;;25.90;15.30;;;;;;5060884;28;46676;-67
2023/08/19 07:14:27;;;;;;;8.60;3.77;;;25.90;15.50;;;;;;5066853;28;46344;-68
2023/08/19 07:16:58;;;;;;;7.80;3.87;;;25.90;14.50;;;;;;5059944;28;46546;-68
2023/08/19 07:19:34;;;;;;;5.60;3.57;;;25.90;15.40;;;;;;5061633;28;46131;-68
2023/08/19 07:22:00;;;;;;;9.00;3.70;;;25.90;15.40;;;;;;5064997;28;46459;-67
2023/08/19 07:24:26;;;;;;;10.00;3.33;;;26.00;15.40;;;;;;5064259;28;46442;-68
2023/08/19 07:26:52;;;;;;;8.63;3.93;;;26.00;14.50;;;;;;5067317;28;46624;-69
2023/08/19 07:29:18;;;;;;;12.27;4.30;;;26.10;15.40;;;;;;5064335;28;47237;-67
2023/08/19 07:31:44;;;;;;;7.70;4.03;;;26.10;15.50;;;;;;5060586;27;46397;-68
2023/08/19 07:34:09;;;;;;;10.10;3.83;;;26.20;15.40;;;;;;5062808;28;46573;-70
2023/08/19 07:36:35;;;;;;;9.17;3.67;;;26.30;13.80;;;;;;5061889;28;46390;-69
2023/08/19 07:39:03;;;;;;;9.47;4.10;;;26.40;14.70;;;;;;5062625;28;46662;-67
2023/08/19 07:41:29;;;;;;;8.13;3.97;;;26.40;14.60;;;;;;5059696;28;45882;-71
2023/08/19 07:43:55;;;;;;;42.07;14.63;;;26.50;14.50;;;;;;5063132;28;46407;-73
2023/08/19 07:46:20;;;;;;;10.57;4.93;;;26.40;13.60;;;;;;5063581;28;46634;-67
2023/08/19 07:48:46;;;;;;;10.40;4.50;;;26.60;13.60;;;;;;5063005;28;46402;-67
2023/08/19 07:51:12;;;;;;;8.27;4.10;;;26.60;14.20;;;;;;5067961;27;46462;-67
2023/08/19 07:53:38;;;;;;;17.20;6.57;;;26.80;13.50;;;;;;5063951;27;46527;-68
2023/08/19 07:56:05;;;;;;;10.07;5.10;;;26.80;13.00;;;;;;5065896;28;46727;-67
2023/08/19 07:58:32;;;;;;;11.90;4.90;;;26.80;13.70;;;;;;5062977;28;46731;-67
2023/08/19 08:00:58;;;;;;;11.70;4.17;;;26.80;13.80;;;;;;5067767;28;46426;-67
2023/08/19 08:03:23;;;;;;;11.23;5.03;;;26.90;13.60;;;;;;5066079;28;46388;-67
2023/08/19 08:05:49;;;;;;;9.10;4.17;;;27.00;12.70;;;;;;5065422;28;46516;-67
2023/08/19 08:08:14;;;;;;;8.83;4.47;;;27.00;13.30;;;;;;5065096;28;46420;-68
2023/08/19 08:10:41;;;;;;;9.67;4.13;;;27.20;13.10;;;;;;5065796;28;46479;-67
2023/08/19 08:13:06;;;;;;;14.13;5.00;;;27.30;13.00;;;;;;5065848;27;46355;-68
2023/08/19 08:15:32;;;;;;;12.10;4.43;;;27.50;11.80;;;;;;5064331;28;46875;-67
2023/08/19 08:17:58;;;;;;;7.63;3.30;;;27.50;12.60;;;;;;5063438;28;47280;-68
2023/08/19 08:20:23;;;;;;;7.67;3.63;;;27.60;12.40;;;;;;5065237;28;46761;-68
2023/08/19 08:22:49;;;;;;;10.00;3.87;;;27.70;12.00;;;;;;5059717;28;46542;-68
2023/08/19 08:25:14;;;;;;;11.90;4.40;;;27.90;11.30;;;;;;5065697;28;46648;-68
2023/08/19 08:27:40;;;;;;;17.80;4.37;;;27.90;11.70;;;;;;5064345;28;46517;-69
2023/08/19 08:30:07;;;;;;;37.33;8.33;;;28.00;10.90;;;;;;5065536;27;46700;-67
2023/08/19 08:32:32;;;;;;;10.27;4.17;;;28.10;11.60;;;;;;5062867;28;46414;-67
2023/08/19 08:34:59;;;;;;;9.63;3.80;;;28.20;11.00;;;;;;5065176;28;46605;-69
2023/08/19 08:37:24;;;;;;;15.17;4.50;;;28.40;9.80;;;;;;5057510;28;46502;-67
2023/08/19 08:39:50;;;;;;;19.10;6.70;;;28.50;10.20;;;;;;5062802;28;46367;-69
2023/08/19 08:42:17;;;;;;;23.17;4.80;;;28.50;10.00;;;;;;5061352;28;46359;-67
2023/08/19 08:44:46;;;;;;;14.40;3.20;;;28.50;9.60;;;;;;5061337;28;46491;-68
2023/08/19 08:47:14;;;;;;;14.67;4.40;;;28.50;8.40;;;;;;5060304;28;47157;-67
2023/08/19 08:49:40;;;;;;;13.33;4.30;;;28.70;9.50;;;;;;5064383;28;46436;-68
2023/08/19 08:52:06;;;;;;;13.53;3.67;;;;;;;;;;5065486;28;45789;-67
2023/08/19 08:54:33;;;;;;;12.23;3.80;;;28.70;7.80;;;;;;5064289;28;46040;-66
2023/08/19 08:57:01;;;;;;;9.40;3.70;;;28.90;7.70;;;;;;5063415;28;47053;-68
2023/08/19 08:59:30;;;;;;;9.40;3.80;;;29.00;8.60;;;;;;5062196;28;46746;-67
2023/08/19 09:01:58;;;;;;;9.10;4.43;;;29.00;7.20;;;;;;5062599;28;46429;-67
2023/08/19 09:04:26;;;;;;;7.40;3.47;;;29.10;8.20;;;;;;5063884;28;46870;-66
2023/08/19 09:07:03;;;;;;;22.50;3.87;;;29.20;7.60;;;;;;5065119;28;46574;-67
2023/08/19 09:09:33;;;;;;;9.40;3.30;;;29.20;7.70;;;;;;5068461;28;46491;-66
2023/08/19 09:12:00;;;;;;;7.20;3.40;;;29.30;7.40;;;;;;5061567;28;46388;-66
2023/08/19 09:14:31;;;;;;;11.50;3.87;;;29.50;7.20;;;;;;5064989;28;46455;-67
2023/08/19 09:16:57;;;;;;;15.23;4.20;;;29.60;5.50;;;;;;5063646;28;47037;-67
2023/08/19 09:19:22;;;;;;;11.00;3.80;;;29.60;6.50;;;;;;5064224;28;46496;-66
2023/08/19 09:21:48;;;;;;;8.90;3.50;;;29.70;6.30;;;;;;5065695;28;46467;-67
2023/08/19 09:24:16;;;;;;;13.63;3.27;;;29.80;5.70;;;;;;5064704;28;46503;-68
2023/08/19 09:26:42;;;;;;;9.13;3.40;;;29.90;5.20;;;;;;5061102;28;46977;-67
2023/08/19 09:29:08;;;;;;;10.90;3.60;;;29.90;6.10;;;;;;5064736;28;45803;-67
2023/08/19 09:31:34;;;;;;;7.93;3.77;;;30.00;6.20;;;;;;5064057;28;46129;-68
2023/08/19 09:34:00;;;;;;;8.80;3.77;;;30.00;6.10;;;;;;5063980;28;45901;-67
2023/08/19 09:36:26;;;;;;;8.50;3.47;;;30.10;5.30;;;;;;5059656;28;46379;-67
2023/08/19 09:38:55;;;;;;;8.57;3.13;;;30.20;5.40;;;;;;5064210;28;46525;-67
2023/08/19 09:41:27;;;;;;;8.00;3.40;;;30.10;5.70;;;;;;5055589;28;46490;-68
2023/08/19 09:43:53;;;;;;;10.90;2.90;;;30.20;4.20;;;;;;5061533;27;46704;-68
2023/08/19 09:46:19;;;;;;;6.90;3.30;;;30.20;4.50;;;;;;5061188;28;46471;-66
2023/08/19 09:48:53;;;;;;;15.17;4.17;;;30.20;5.30;;;;;;5062593;28;46806;-66
2023/08/19 09:51:23;;;;;;;10.50;3.33;;;30.30;4.90;;;;;;5060957;28;46517;-68
2023/08/19 09:53:49;;;;;;;11.43;3.17;;;30.40;3.90;;;;;;5059662;28;46496;-66
2023/08/19 09:56:41;;;;;;;11.07;3.30;;;30.40;3.90;;;;;;5059953;28;46564;-68
2023/08/19 09:59:08;;;;;;;11.83;2.97;;;30.40;4.30;;;;;;5060656;28;46403;-66
2023/08/19 10:01:34;;;;;;;11.13;3.60;;;30.30;4.00;;;;;;5064883;28;46450;-66
2023/08/19 10:04:00;;;;;;;7.87;3.50;;;30.40;4.80;;;;;;5056170;28;46462;-67
2023/08/19 10:06:27;;;;;;;17.73;3.47;;;30.70;3.90;;;;;;5045822;28;46804;-69
2023/08/19 10:09:01;;;;;;;14.03;3.33;;;30.70;4.40;;;;;;5040661;28;46502;-69
2023/08/19 10:11:30;;;;;;;9.63;3.20;;;30.80;4.00;;;;;;5053698;28;46444;-69
2023/08/19 10:14:02;;;;;;;8.47;3.53;;;30.80;4.10;;;;;;5040715;28;46413;-65
2023/08/19 10:16:32;;;;;;;12.63;3.60;;;30.90;3.10;;;;;;5054135;28;46459;-65
2023/08/19 10:19:00;;;;;;;5.80;2.87;;;30.90;2.70;;;;;;5041423;28;46530;-64
2023/08/19 10:21:30;;;;;;;9.20;3.17;;;31.00;3.10;;;;;;5050258;28;46736;-67
2023/08/19 10:23:57;;;;;;;9.60;3.43;;;30.90;2.00;;;;;;5058156;28;46443;-65
2023/08/19 10:26:23;;;;;;;7.60;2.40;;;31.10;2.10;;;;;;5054274;28;46481;-65
2023/08/19 10:29:06;;;;;;;8.07;2.77;;;31.10;2.80;;;;;;5059079;28;46184;-67
2023/08/19 10:31:33;;;;;;;9.53;3.40;;;31.20;1.90;;;;;;5051277;28;46278;-68
2023/08/19 10:34:10;;;;;;;5.40;2.43;;;31.20;1.00;;;;;;5055910;28;46555;-66
2023/08/19 10:36:37;;;;;;;5.93;2.70;;;31.10;1.00;;;;;;5049677;28;46538;-67
2023/08/19 10:39:07;;;;;;;8.83;2.63;;;31.10;1.00;;;;;;5059095;28;46427;-66
2023/08/19 10:41:40;;;;;;;4.60;2.50;;;31.10;1.00;;;;;;5064011;28;46425;-66
2023/08/19 10:44:11;;;;;;;6.07;3.10;;;31.10;1.00;;;;;;5066803;28;46494;-65
2023/08/19 10:46:38;;;;;;;7.73;2.97;;;31.20;1.00;;;;;;5063321;28;46442;-68
2023/08/19 10:49:15;;;;;;;8.27;3.00;;;31.20;1.10;;;;;;5058347;28;46693;-65
2023/08/19 10:51:44;;;;;;;6.93;3.13;;;31.50;1.00;;;;;;5060786;28;46414;-66
2023/08/19 10:54:09;;;;;;;5.93;2.90;;;31.50;1.00;;;;;;5061094;28;46787;-68
2023/08/19 10:56:36;;;;;;;10.60;2.83;;;31.60;1.00;;;;;;5065595;28;47262;-64
2023/08/19 10:59:02;;;;;;;8.40;2.80;;;31.50;1.00;;;;;;5069651;27;46399;-66
2023/08/19 11:01:32;;;;;;;5.17;2.70;;;31.40;1.00;;;;;;5070489;28;46494;-68
2023/08/19 11:04:00;;;;;;;10.10;2.90;;;31.40;1.00;;;;;;5070429;27;46459;-68
2023/08/19 11:06:30;;;;;;;8.77;2.90;;;31.50;1.00;;;;;;5065714;28;46805;-66
2023/08/19 11:08:59;;;;;;;7.90;2.63;;;31.60;1.00;;;;;;5064522;28;46488;-65
2023/08/19 11:11:39;;;;;;;7.00;2.57;;;31.60;1.00;;;;;;5068082;28;46344;-65
2023/08/19 11:14:04;;;;;;;15.40;2.70;;;31.80;1.00;;;;;;5062027;28;46490;-65
2023/08/19 11:16:30;;;;;;;9.13;3.07;;;31.80;1.00;;;;;;5065343;28;47379;-67
2023/08/19 11:18:57;;;;;;;13.90;3.50;;;31.80;1.00;;;;;;5061055;28;46519;-65
2023/08/19 11:21:24;;;;;;;10.30;2.67;;;31.80;1.00;;;;;;5063385;28;46515;-66
2023/08/19 11:23:51;;;;;;;7.30;2.87;;;31.90;1.00;;;;;;5031617;27;46883;-67
2023/08/19 11:26:18;;;;;;;5.80;2.93;;;31.80;1.00;;;;;;5066967;28;46576;-70
2023/08/19 11:28:44;;;;;;;11.93;3.43;;;31.90;1.00;;;;;;5066859;28;46801;-65
2023/08/19 11:31:10;;;;;;;9.53;2.83;;;31.90;1.00;;;;;;5054239;28;46599;-67
2023/08/19 11:33:39;;;;;;;7.47;2.80;;;32.10;1.00;;;;;;5067795;28;46430;-66
2023/08/19 11:36:05;;;;;;;9.80;2.83;;;;;;;;;;5061278;28;46429;-69
2023/08/19 11:38:31;;;;;;;8.87;3.00;;;32.10;1.00;;;;;;5066448;28;45787;-66
2023/08/19 11:40:57;;;;;;;13.30;3.10;;;32.00;1.00;;;;;;5075619;28;45839;-67
2023/08/19 11:43:24;;;;;;;14.07;3.13;;;32.00;1.00;;;;;;5063765;28;46831;-67
2023/08/19 11:45:54;;;;;;;11.83;3.07;;;32.00;1.00;;;;;;5062207;28;46805;-69
2023/08/19 11:48:19;;;;;;;8.67;3.00;;;32.00;1.00;;;;;;5065112;28;45740;-72
2023/08/19 11:50:50;;;;;;;7.87;2.97;;;32.10;1.00;;;;;;5065553;28;45883;-69
2023/08/19 11:53:27;;;;;;;96.93;39.47;;;32.10;1.00;;;;;;5065280;28;46471;-68
2023/08/19 11:56:00;;;;;;;8.73;2.90;;;32.00;1.00;;;;;;5065523;28;46143;-69
2023/08/19 11:58:41;;;;;;;557.53;244.60;;;32.10;1.00;;;;;;5064514;28;46534;-67
2023/08/19 12:01:08;;;;;;;126.30;44.87;;;32.00;1.00;;;;;;5064528;28;46429;-67
2023/08/19 12:03:41;;;;;;;12.60;3.70;;;32.00;1.00;;;;;;5053848;28;46515;-67
2023/08/19 12:06:07;;;;;;;10.73;3.30;;;32.10;1.00;;;;;;5054706;28;46710;-67
2023/08/19 12:08:33;;;;;;;10.50;3.23;;;32.10;1.00;;;;;;5059869;28;46717;-68
2023/08/19 12:10:59;;;;;;;6.50;2.60;;;32.00;1.00;;;;;;5057084;28;45943;-67
2023/08/19 12:13:27;;;;;;;12.30;2.70;;;31.90;1.00;;;;;;5052116;27;46695;-69
2023/08/19 12:15:54;;;;;;;11.20;3.50;;;31.90;1.00;;;;;;5072595;27;46705;-68
2023/08/19 12:18:19;;;;;;;13.80;3.23;;;31.90;1.00;;;;;;5064986;28;46507;-67
2023/08/19 12:20:46;;;;;;;18.73;8.00;;;32.00;1.00;;;;;;5062213;28;46382;-67
2023/08/19 12:23:12;;;;;;;15.13;5.10;;;32.10;1.00;;;;;;5061638;28;46676;-68
2023/08/19 12:25:54;;;;;;;21.33;7.50;;;32.10;1.00;;;;;;5066385;28;47069;-67
2023/08/19 12:28:21;;;;;;;13.77;5.13;;;32.20;1.00;;;;;;5064057;28;46454;-68
2023/08/19 12:30:47;;;;;;;10.97;3.90;;;32.10;1.00;;;;;;5064105;28;45836;-69
2023/08/19 12:33:14;;;;;;;16.60;3.27;;;32.10;1.00;;;;;;5061890;28;46394;-67
2023/08/19 12:35:41;;;;;;;8.80;3.30;;;32.20;1.00;;;;;;5061715;28;47272;-67
2023/08/19 12:38:08;;;;;;;8.90;3.23;;;32.20;1.00;;;;;;5064447;28;46533;-67
2023/08/19 12:40:34;;;;;;;14.43;3.40;;;32.30;1.00;;;;;;5063745;28;46436;-70
2023/08/19 12:43:00;;;;;;;11.70;3.60;;;32.40;1.00;;;;;;5042422;27;46601;-69
2023/08/19 12:45:27;;;;;;;12.70;2.90;;;32.40;1.00;;;;;;5051670;28;47335;-67
2023/08/19 12:47:53;;;;;;;10.53;3.13;;;32.50;1.00;;;;;;5056152;28;46746;-70
2023/08/19 12:50:21;;;;;;;6.63;2.57;;;32.50;1.00;;;;;;5057327;28;46529;-67
2023/08/19 12:52:48;;;;;;;16.90;3.90;;;32.50;1.00;;;;;;5059451;27;46749;-70
2023/08/19 12:55:26;;;;;;;14.17;4.67;;;32.60;1.00;;;;;;5063783;28;46677;-67